aviador You're here:

KPRO Decoded Metar

PERRY MUNI in IA, USA
Report Time2017-05-26 11:15:00
UTC Time2017-05-26 11:18:05
Flight Rules vfr VFR
Wind100° at 06 kt
W.Decomp.*RWY 14: 4.5 kt HW 4 kt LCW
RWY 04: 3.2 kt HW 5.1 kt RCW
W.Rank100° ranks 20
Current wind is below 100° avg. (6.8)
Visibility9999 m
Phenomena:N/A
Clouds:Overcast 090 Hf
Expected CloudBase > 800 ft AGL from Temp-Dew spread
Ceiling9,000 ft
Temp15°C (ISA +2)
Dew Point13°C (88% RH)
AAT13.8°C
QNH1005 hPa
Density Alt1,722 ft
Elevation1,010 ft
Report Wrong Elevation
Raw Report
METAR KPRO 261115Z AUTO 10006KT 10SM OVC090 15/13 A2968 RMK AO2 T01470127=

Extra information for KPRO:More info

Metar Taf Metar & Taf Last 4 Metars F.Rules Stats Wind Profile Meteogram Temp Stats Airport Information Weather charts Add Link Nearby VenuesMetar ALERT Operation Metar Decoded Social comments

AIRNAV info for KPRO